Time;durP1;ratioP1;P1;durP2;ratioP2;P2;SDS_P1;SDS_P2;PMS_P1;PMS_P2;Temp;Humidity;BMP_temperature;BMP_pressure;BME280_temperature;BME280_humidity;BME280_pressure;Samples;Min_cycle;Max_cycle;Signal;HPM_P1;HPM_P2
2021/01/09 00:00:42;;;;;;;40.30;23.13;;;4.40;82.10;;;;;;4886971;28;87975;-76
2021/01/09 00:03:09;;;;;;;34.53;21.67;;;4.40;82.10;;;;;;4902429;28;90552;-75
2021/01/09 00:05:35;;;;;;;37.80;23.37;;;4.40;82.10;;;;;;4888659;28;87495;-75
2021/01/09 00:08:00;;;;;;;50.73;28.70;;;4.40;82.10;;;;;;4888328;28;87673;-75
2021/01/09 00:10:26;;;;;;;45.93;25.97;;;4.40;82.10;;;;;;4886327;28;87466;-76
2021/01/09 00:12:52;;;;;;;35.80;23.00;;;4.40;82.10;;;;;;4900858;28;91235;-76
2021/01/09 00:15:18;;;;;;;33.97;21.97;;;4.30;82.10;;;;;;4886825;28;87488;-76
2021/01/09 00:17:44;;;;;;;44.70;24.67;;;4.30;82.10;;;;;;4903426;28;87296;-76
2021/01/09 00:20:12;;;;;;;41.03;23.37;;;4.30;82.10;;;;;;4902065;28;87450;-76
2021/01/09 00:22:39;;;;;;;33.57;22.20;;;4.30;82.30;;;;;;4901307;28;92387;-76
2021/01/09 00:25:06;;;;;;;36.37;22.30;;;4.40;82.20;;;;;;4900906;28;92324;-75
2021/01/09 00:27:33;;;;;;;38.07;22.70;;;4.30;81.90;;;;;;4903050;28;86776;-75
2021/01/09 00:29:59;;;;;;;35.20;22.30;;;4.50;81.80;;;;;;4902112;28;87048;-75
2021/01/09 00:32:24;;;;;;;38.90;24.13;;;4.40;81.60;;;;;;4901480;28;91512;-75
2021/01/09 00:34:50;;;;;;;39.90;24.20;;;4.40;81.40;;;;;;4901094;28;88075;-75
2021/01/09 00:37:17;;;;;;;35.20;23.57;;;4.40;81.50;;;;;;4904051;28;87468;-76
2021/01/09 00:39:46;;;;;;;37.47;23.67;;;4.40;81.50;;;;;;4906786;28;86311;-77
2021/01/09 00:42:12;;;;;;;41.37;26.13;;;4.40;81.50;;;;;;4904389;28;91437;-76
2021/01/09 00:44:38;;;;;;;41.50;25.63;;;4.40;81.60;;;;;;4873018;28;91356;-75
2021/01/09 00:47:04;;;;;;;40.37;23.30;;;4.40;81.70;;;;;;4887922;28;87932;-75
2021/01/09 00:49:30;;;;;;;41.83;24.63;;;4.40;81.70;;;;;;4906529;28;87117;-76
2021/01/09 00:51:56;;;;;;;40.30;23.13;;;4.40;81.50;;;;;;4903954;28;90036;-76
2021/01/09 00:54:22;;;;;;;40.50;23.00;;;4.40;81.50;;;;;;4904836;28;91195;-75
2021/01/09 00:56:54;;;;;;;41.90;26.00;;;4.30;81.30;;;;;;4905415;28;87564;-75
2021/01/09 00:59:22;;;;;;;35.50;23.63;;;4.30;81.30;;;;;;4873520;28;87689;-75
2021/01/09 01:01:52;;;;;;;42.27;24.37;;;4.40;81.10;;;;;;4906898;28;91384;-76
2021/01/09 01:04:19;;;;;;;41.77;25.90;;;4.40;81.00;;;;;;4908382;28;88463;-76
2021/01/09 01:06:46;;;;;;;43.90;25.20;;;4.40;81.00;;;;;;4888569;28;87549;-76
2021/01/09 01:09:12;;;;;;;47.47;27.87;;;4.40;80.90;;;;;;4887073;28;87612;-75
2021/01/09 01:11:39;;;;;;;41.60;25.23;;;4.40;80.90;;;;;;4904973;28;88617;-76
2021/01/09 01:14:06;;;;;;;43.13;25.33;;;4.40;80.90;;;;;;4904926;28;88842;-75
2021/01/09 01:16:31;;;;;;;39.23;25.43;;;4.40;80.80;;;;;;4906011;28;86962;-75
2021/01/09 01:18:57;;;;;;;41.57;26.30;;;4.40;80.60;;;;;;4887721;28;87145;-76
2021/01/09 01:21:23;;;;;;;44.83;26.77;;;4.40;80.60;;;;;;4903990;28;91845;-76
2021/01/09 01:23:49;;;;;;;36.87;23.50;;;4.40;80.70;;;;;;4905965;28;87459;-75
2021/01/09 01:26:15;;;;;;;40.47;25.27;;;4.40;80.70;;;;;;4903461;28;86994;-75
2021/01/09 01:28:41;;;;;;;41.93;25.83;;;4.40;80.80;;;;;;4903575;28;87394;-75
2021/01/09 01:31:08;;;;;;;40.47;25.53;;;4.40;80.70;;;;;;4871250;28;90776;-76
2021/01/09 01:33:34;;;;;;;39.07;24.50;;;4.40;80.50;;;;;;4905383;28;87000;-76
2021/01/09 01:36:00;;;;;;;38.23;24.13;;;4.40;80.70;;;;;;4904322;28;87907;-75
2021/01/09 01:38:26;;;;;;;35.10;22.27;;;4.40;80.80;;;;;;4888265;28;87052;-75
2021/01/09 01:40:59;;;;;;;34.47;23.53;;;4.40;80.90;;;;;;4903785;28;91257;-76
2021/01/09 01:43:25;;;;;;;40.27;23.20;;;4.40;80.90;;;;;;4888227;28;88011;-75
2021/01/09 01:45:51;;;;;;;39.20;24.27;;;4.40;81.00;;;;;;4888191;28;87428;-76
2021/01/09 01:48:17;;;;;;;39.23;25.10;;;4.40;80.80;;;;;;4870862;28;88257;-76
2021/01/09 01:50:43;;;;;;;36.53;24.17;;;4.40;80.60;;;;;;4905082;28;88057;-76
2021/01/09 01:53:09;;;;;;;39.20;23.90;;;4.40;80.60;;;;;;4904726;28;87962;-75
2021/01/09 01:55:35;;;;;;;40.77;24.80;;;4.40;80.50;;;;;;4905345;28;86822;-76
2021/01/09 01:58:01;;;;;;;33.90;22.43;;;4.40;81.30;;;;;;4902836;28;87924;-76
2021/01/09 02:00:29;;;;;;;37.23;22.43;;;4.30;81.00;;;;;;4886461;28;92333;-75
2021/01/09 02:02:56;;;;;;;38.13;24.30;;;4.30;80.90;;;;;;4887661;28;89030;-75
2021/01/09 02:05:23;;;;;;;36.07;22.20;;;4.30;81.10;;;;;;4903340;28;87275;-76
2021/01/09 02:07:55;;;;;;;37.10;24.23;;;4.30;81.10;;;;;;4887825;28;87903;-76
2021/01/09 02:10:25;;;;;;;37.30;22.15;;;4.30;81.10;;;;;;4886616;28;90951;-75
2021/01/09 02:13:06;;;;;;;36.30;23.70;;;4.30;81.10;;;;;;4887832;28;87267;-76
2021/01/09 02:15:33;;;;;;;36.23;22.97;;;4.30;81.10;;;;;;4903637;28;87462;-75
2021/01/09 02:18:00;;;;;;;41.07;24.97;;;4.30;80.80;;;;;;4904842;28;86695;-75
2021/01/09 02:20:33;;;;;;;41.50;25.17;;;4.40;80.80;;;;;;4904995;28;88079;-76
2021/01/09 02:22:59;;;;;;;35.90;24.37;;;4.40;80.60;;;;;;4904381;28;86773;-75
2021/01/09 02:25:25;;;;;;;34.80;22.87;;;4.40;80.60;;;;;;4886984;28;87751;-76
2021/01/09 02:27:51;;;;;;;35.23;22.60;;;4.40;80.60;;;;;;4887515;28;88184;-76
2021/01/09 02:30:25;;;;;;;36.07;23.00;;;4.30;80.80;;;;;;4887274;28;87910;-75
2021/01/09 02:33:01;;;;;;;33.87;21.63;;;4.40;80.90;;;;;;4905631;28;87482;-76
2021/01/09 02:35:30;;;;;;;34.23;22.03;;;4.40;80.50;;;;;;4903861;28;87091;-76
2021/01/09 02:37:57;;;;;;;35.23;22.83;;;4.40;80.50;;;;;;4887856;28;87606;-76
2021/01/09 02:40:23;;;;;;;37.20;23.83;;;4.40;80.40;;;;;;4902686;28;92133;-75
2021/01/09 02:42:49;;;;;;;37.30;24.00;;;4.40;80.10;;;;;;4905037;28;88165;-76
2021/01/09 02:45:15;;;;;;;31.97;21.60;;;4.40;80.20;;;;;;4904010;28;86837;-76
2021/01/09 02:47:42;;;;;;;38.80;22.53;;;4.40;79.90;;;;;;4904515;28;87033;-76
2021/01/09 02:50:12;;;;;;;32.90;20.97;;;4.30;79.80;;;;;;4884938;28;91215;-75
2021/01/09 02:52:39;;;;;;;34.00;19.87;;;4.20;80.00;;;;;;4871501;28;92731;-76
2021/01/09 02:55:06;;;;;;;36.47;21.57;;;4.20;80.30;;;;;;4902423;28;87012;-75
2021/01/09 02:57:32;;;;;;;31.57;21.13;;;4.10;80.40;;;;;;4887444;28;87107;-76
2021/01/09 02:59:58;;;;;;;33.47;19.03;;;4.10;80.90;;;;;;4870436;28;90854;-76
2021/01/09 03:02:24;;;;;;;28.37;19.67;;;4.10;81.40;;;;;;4886500;28;91347;-76
2021/01/09 03:04:50;;;;;;;31.33;20.23;;;4.10;81.40;;;;;;4904756;28;87029;-76
2021/01/09 03:07:15;;;;;;;36.17;21.90;;;4.10;81.50;;;;;;4902898;28;86575;-75
2021/01/09 03:09:41;;;;;;;28.43;18.70;;;4.10;81.70;;;;;;4886808;28;88589;-76
2021/01/09 03:12:08;;;;;;;31.00;18.97;;;4.20;81.70;;;;;;4903721;28;87882;-75
2021/01/09 03:14:33;;;;;;;32.70;20.73;;;4.20;81.90;;;;;;4888080;28;87961;-77
2021/01/09 03:16:59;;;;;;;27.10;18.40;;;4.20;81.90;;;;;;4905290;28;86725;-76
2021/01/09 03:19:25;;;;;;;27.43;18.87;;;4.10;82.30;;;;;;4890096;28;91352;-77
2021/01/09 03:21:51;;;;;;;27.53;18.50;;;4.10;82.70;;;;;;4905723;28;88377;-76
2021/01/09 03:24:17;;;;;;;31.40;19.90;;;4.00;82.80;;;;;;4886880;28;87285;-75
2021/01/09 03:26:43;;;;;;;27.07;17.07;;;4.00;83.10;;;;;;4887354;28;87816;-75
2021/01/09 03:29:08;;;;;;;30.63;18.23;;;4.10;83.10;;;;;;4904430;28;88096;-76
2021/01/09 03:31:34;;;;;;;29.90;18.60;;;4.10;83.10;;;;;;4873427;28;90891;-76
2021/01/09 03:34:00;;;;;;;25.13;17.10;;;4.10;83.00;;;;;;4905142;28;86891;-76
2021/01/09 03:36:26;;;;;;;27.57;18.00;;;4.20;82.80;;;;;;4901825;28;87245;-76
2021/01/09 03:38:52;;;;;;;25.50;17.97;;;4.20;82.60;;;;;;4886123;28;88012;-76
2021/01/09 03:41:17;;;;;;;22.93;16.93;;;4.20;82.50;;;;;;4899882;28;88849;-76
2021/01/09 03:43:43;;;;;;;26.97;17.87;;;4.20;82.70;;;;;;4886005;28;86930;-75
2021/01/09 03:46:09;;;;;;;26.07;17.30;;;4.20;82.70;;;;;;4869447;28;88064;-75
2021/01/09 03:48:35;;;;;;;24.67;16.77;;;4.20;82.90;;;;;;4886198;28;88142;-76
2021/01/09 03:51:01;;;;;;;24.80;16.53;;;4.20;83.00;;;;;;4886196;28;87515;-75
2021/01/09 03:53:27;;;;;;;19.77;14.80;;;4.20;82.90;;;;;;4869623;28;86864;-75
2021/01/09 03:55:52;;;;;;;19.10;15.70;;;4.10;83.00;;;;;;4886347;28;87931;-76
2021/01/09 03:58:18;;;;;;;21.57;15.73;;;4.00;83.40;;;;;;4902536;28;86905;-75
2021/01/09 04:00:44;;;;;;;21.63;14.53;;;4.00;83.60;;;;;;4870023;28;90851;-76
2021/01/09 04:03:10;;;;;;;20.27;15.00;;;4.00;83.60;;;;;;4900844;28;87867;-75
2021/01/09 04:05:36;;;;;;;19.27;14.83;;;4.00;83.90;;;;;;4885940;28;87651;-76
2021/01/09 04:08:01;;;;;;;19.00;14.93;;;4.00;84.20;;;;;;4885710;28;91282;-76
2021/01/09 04:10:27;;;;;;;19.93;14.50;;;4.00;84.20;;;;;;4901842;28;86729;-75
2021/01/09 04:12:53;;;;;;;17.07;13.63;;;4.00;84.20;;;;;;4885822;28;86831;-75
2021/01/09 04:15:19;;;;;;;16.70;13.20;;;4.00;84.20;;;;;;4885163;28;87104;-75
2021/01/09 04:17:45;;;;;;;21.17;13.70;;;4.00;84.20;;;;;;4885719;28;91697;-76
2021/01/09 04:20:11;;;;;;;16.90;13.13;;;4.00;84.40;;;;;;4885559;28;87328;-75
2021/01/09 04:22:36;;;;;;;16.63;13.10;;;4.00;84.40;;;;;;4869965;28;87103;-75
2021/01/09 04:25:03;;;;;;;17.67;12.90;;;4.00;84.00;;;;;;4885713;28;87727;-76
2021/01/09 04:27:29;;;;;;;17.43;12.63;;;4.00;84.10;;;;;;4868389;28;92343;-75
2021/01/09 04:29:55;;;;;;;14.43;11.80;;;4.00;84.20;;;;;;4884830;28;92185;-75
2021/01/09 04:32:21;;;;;;;13.40;11.53;;;3.90;84.10;;;;;;4884788;28;87632;-75
2021/01/09 04:34:48;;;;;;;14.67;11.47;;;3.90;84.20;;;;;;4869702;28;87997;-76
2021/01/09 04:37:14;;;;;;;12.87;11.00;;;4.00;84.10;;;;;;4900474;28;91187;-75
2021/01/09 04:39:40;;;;;;;13.23;10.60;;;4.00;83.90;;;;;;4869658;28;90963;-76
2021/01/09 04:42:06;;;;;;;14.63;11.33;;;3.90;83.60;;;;;;4903175;28;86835;-75
2021/01/09 04:44:32;;;;;;;13.57;11.20;;;4.00;83.50;;;;;;4885698;28;86338;-75
2021/01/09 04:47:01;;;;;;;11.80;10.13;;;4.00;83.10;;;;;;4901372;28;91033;-75
2021/01/09 04:49:29;;;;;;;11.37;9.57;;;4.00;82.80;;;;;;4902066;28;87984;-76
2021/01/09 04:51:56;;;;;;;14.23;11.40;;;4.00;82.70;;;;;;4885736;28;87747;-76
2021/01/09 04:54:25;;;;;;;11.87;10.07;;;3.90;82.60;;;;;;4900883;28;87117;-75
2021/01/09 04:56:55;;;;;;;12.87;10.33;;;3.90;82.50;;;;;;4888045;28;87784;-76
2021/01/09 04:59:23;;;;;;;11.93;9.40;;;4.00;82.60;;;;;;4883460;28;88079;-75
2021/01/09 05:01:50;;;;;;;12.17;9.10;;;3.90;82.30;;;;;;4902383;28;87093;-76
2021/01/09 05:04:17;;;;;;;10.63;9.00;;;3.90;82.00;;;;;;4902808;28;87104;-75
2021/01/09 05:06:45;;;;;;;9.27;8.27;;;4.00;81.80;;;;;;4903355;28;87780;-76
2021/01/09 05:09:13;;;;;;;9.37;8.40;;;3.90;81.40;;;;;;4901668;28;87679;-75
2021/01/09 05:11:41;;;;;;;10.00;8.20;;;3.90;81.40;;;;;;4903542;28;87276;-76
2021/01/09 05:14:08;;;;;;;8.63;7.33;;;3.90;81.20;;;;;;4901968;28;87052;-76
2021/01/09 05:16:35;;;;;;;8.00;7.10;;;3.90;80.80;;;;;;4884423;28;93183;-75
2021/01/09 05:19:03;;;;;;;8.20;6.80;;;3.80;80.60;;;;;;4885617;28;91924;-76
2021/01/09 05:21:32;;;;;;;8.70;7.77;;;3.80;80.40;;;;;;4869095;28;87036;-75
2021/01/09 05:24:25;;;;;;;9.20;7.70;;;3.80;80.60;;;;;;4873193;28;87593;-76
2021/01/09 05:26:52;;;;;;;9.80;8.07;;;3.80;80.90;;;;;;4886761;28;88486;-76
2021/01/09 05:29:19;;;;;;;9.47;7.83;;;3.80;81.00;;;;;;4905307;28;87999;-75
2021/01/09 05:31:45;;;;;;;9.30;8.20;;;3.80;81.00;;;;;;4905114;28;87424;-76
2021/01/09 05:34:11;;;;;;;8.77;7.73;;;3.80;81.00;;;;;;4905909;28;87696;-75
2021/01/09 05:36:39;;;;;;;9.43;8.00;;;3.80;80.70;;;;;;4909190;28;88370;-76
2021/01/09 05:39:05;;;;;;;9.77;8.40;;;3.80;81.00;;;;;;4890196;28;87639;-76
2021/01/09 05:41:31;;;;;;;9.30;7.70;;;3.80;80.90;;;;;;4905020;28;87894;-76
2021/01/09 05:44:06;;;;;;;10.10;8.57;;;3.80;80.60;;;;;;4906131;28;86968;-76
2021/01/09 05:46:34;;;;;;;11.03;8.90;;;3.80;80.90;;;;;;4871993;28;90538;-75
2021/01/09 05:49:01;;;;;;;11.33;8.70;;;3.70;80.80;;;;;;4872521;28;90732;-76
2021/01/09 05:51:28;;;;;;;14.30;10.27;;;3.80;81.00;;;;;;4872228;28;87027;-76
2021/01/09 05:53:55;;;;;;;10.90;8.13;;;3.80;80.90;;;;;;4903712;28;87397;-76
2021/01/09 05:56:21;;;;;;;10.53;8.80;;;3.80;81.00;;;;;;4904857;28;88267;-75
2021/01/09 05:58:52;;;;;;;10.50;8.77;;;3.70;81.30;;;;;;4888958;28;88384;-75
2021/01/09 06:01:26;;;;;;;12.63;9.45;;;3.70;81.30;;;;;;4905262;28;86922;-75
2021/01/09 06:04:17;;;;;;;10.80;8.13;;;3.70;81.40;;;;;;4904778;28;87358;-76
2021/01/09 06:06:47;;;;;;;10.63;8.90;;;3.70;81.30;;;;;;4903707;28;92284;-75
2021/01/09 06:09:19;;;;;;;13.43;9.57;;;3.70;81.20;;;;;;4891039;28;92384;-76
2021/01/09 06:11:47;;;;;;;13.33;10.00;;;3.70;81.50;;;;;;4891961;28;87042;-77
2021/01/09 06:14:14;;;;;;;12.17;9.60;;;3.70;81.80;;;;;;4890896;28;87292;-76
2021/01/09 06:16:42;;;;;;;12.70;9.87;;;3.70;81.80;;;;;;4907290;28;88214;-76
2021/01/09 06:19:09;;;;;;;12.57;9.13;;;3.70;81.90;;;;;;4889700;28;87390;-75
2021/01/09 06:21:36;;;;;;;13.47;10.33;;;3.70;81.60;;;;;;4889072;28;86929;-75
2021/01/09 06:24:06;;;;;;;11.77;7.87;;;3.70;81.40;;;;;;4888050;28;87789;-75
2021/01/09 06:26:33;;;;;;;13.87;8.90;;;3.60;81.00;;;;;;4887229;28;91289;-75
2021/01/09 06:29:03;;;;;;;13.43;8.77;;;3.50;81.60;;;;;;4887707;28;90209;-76
2021/01/09 06:31:30;;;;;;;8.37;6.60;;;3.50;81.50;;;;;;4904293;28;87806;-76
2021/01/09 06:34:01;;;;;;;10.67;7.80;;;3.40;81.30;;;;;;4887264;28;87066;-76
2021/01/09 06:36:27;;;;;;;7.70;6.90;;;3.40;81.30;;;;;;4886973;28;91562;-76
2021/01/09 06:38:57;;;;;;;19.13;11.03;;;3.40;81.40;;;;;;4903677;28;90817;-76
2021/01/09 06:41:25;;;;;;;18.93;11.57;;;3.40;81.20;;;;;;4902632;28;86773;-75
2021/01/09 06:43:53;;;;;;;14.87;9.13;;;3.40;81.10;;;;;;4904547;28;87305;-76
2021/01/09 06:46:38;;;;;;;8.63;6.33;;;3.40;80.80;;;;;;4887215;28;91280;-75
2021/01/09 06:49:04;;;;;;;8.47;6.33;;;3.50;79.70;;;;;;4888242;28;87989;-76
2021/01/09 06:51:32;;;;;;;9.07;6.13;;;3.50;79.20;;;;;;4905108;28;86968;-75
2021/01/09 06:54:13;;;;;;;7.97;6.50;;;3.50;79.10;;;;;;4905083;28;87131;-76
2021/01/09 06:56:40;;;;;;;8.53;6.97;;;3.50;79.10;;;;;;4889621;28;92047;-77
2021/01/09 06:59:06;;;;;;;7.70;6.57;;;3.50;79.20;;;;;;4905170;28;92619;-75
2021/01/09 07:01:39;;;;;;;7.80;6.27;;;3.50;79.30;;;;;;4904036;28;88407;-76
2021/01/09 07:04:08;;;;;;;6.77;5.93;;;3.50;78.80;;;;;;4903637;28;87875;-76
2021/01/09 07:07:22;;;;;;;7.20;6.23;;;3.50;78.80;;;;;;4902410;28;89377;-75
2021/01/09 07:09:50;;;;;;;7.40;6.50;;;3.60;78.50;;;;;;4810425;29;88124;-75
2021/01/09 07:12:17;;;;;;;7.73;6.90;;;3.50;78.40;;;;;;4810831;29;87530;-76
2021/01/09 07:14:44;;;;;;;12.07;7.90;;;3.60;78.60;;;;;;4824983;29;88115;-75
2021/01/09 07:17:12;;;;;;;17.90;9.37;;;3.60;78.20;;;;;;4810088;29;88382;-75
2021/01/09 07:19:41;;;;;;;15.33;9.07;;;3.70;78.10;;;;;;4824756;29;87827;-75
2021/01/09 07:22:09;;;;;;;9.83;7.43;;;3.70;78.20;;;;;;4809559;29;87948;-76
2021/01/09 07:24:38;;;;;;;8.90;6.87;;;3.70;78.10;;;;;;4809379;29;87639;-75
2021/01/09 07:27:06;;;;;;;10.23;7.53;;;3.70;76.90;;;;;;4825291;29;88747;-76
2021/01/09 07:29:42;;;;;;;8.07;6.60;;;3.70;76.80;;;;;;4824503;29;88173;-75
2021/01/09 07:32:08;;;;;;;7.83;6.37;;;3.70;76.50;;;;;;4809942;29;87132;-76
2021/01/09 07:34:36;;;;;;;8.77;7.10;;;3.80;76.40;;;;;;4808940;29;86989;-76
2021/01/09 07:37:02;;;;;;;6.03;5.43;;;3.90;76.00;;;;;;4809826;29;91430;-76
2021/01/09 07:39:28;;;;;;;6.60;5.90;;;3.90;75.20;;;;;;4834118;28;87307;-75
2021/01/09 07:41:56;;;;;;;5.77;5.00;;;3.90;74.60;;;;;;4886272;28;87259;-75
2021/01/09 07:44:25;;;;;;;6.73;5.53;;;3.90;74.40;;;;;;4885585;28;87325;-75
2021/01/09 07:46:56;;;;;;;6.03;5.03;;;3.90;73.90;;;;;;4885311;28;89076;-75
2021/01/09 07:49:30;;;;;;;6.90;5.40;;;3.90;73.90;;;;;;4885052;28;91786;-76
2021/01/09 07:51:59;;;;;;;9.47;6.23;;;4.00;73.90;;;;;;4902195;28;87506;-75
2021/01/09 07:54:39;;;;;;;12.30;7.53;;;4.00;73.90;;;;;;4888351;28;87433;-75
2021/01/09 07:57:17;;;;;;;12.33;7.87;;;4.00;73.90;;;;;;4870490;28;91466;-75
2021/01/09 07:59:45;;;;;;;14.77;8.03;;;4.10;73.90;;;;;;4901818;28;87909;-76
2021/01/09 08:02:11;;;;;;;11.37;7.17;;;4.10;73.60;;;;;;4901308;28;86913;-76
2021/01/09 08:04:37;;;;;;;10.43;6.93;;;4.00;73.60;;;;;;4868828;28;88351;-75
2021/01/09 08:07:03;;;;;;;12.17;7.40;;;4.10;73.90;;;;;;4885225;28;90405;-75
2021/01/09 08:09:29;;;;;;;11.17;8.13;;;4.10;74.50;;;;;;4874761;28;742709;-75
2021/01/09 08:11:55;;;;;;;11.53;7.40;;;4.10;74.30;;;;;;4870654;28;87966;-75
2021/01/09 08:14:21;;;;;;;10.37;8.00;;;4.10;74.30;;;;;;4870873;28;87439;-76
2021/01/09 08:16:47;;;;;;;11.83;8.03;;;4.10;74.20;;;;;;4901485;28;91503;-76
2021/01/09 08:19:19;;;;;;;8.90;7.63;;;4.10;74.30;;;;;;4903753;28;87937;-76
2021/01/09 08:21:52;;;;;;;10.33;7.67;;;4.10;74.70;;;;;;4886061;28;86898;-75
2021/01/09 08:24:25;;;;;;;7.57;6.67;;;4.20;74.20;;;;;;4904143;28;86846;-75
2021/01/09 08:26:55;;;;;;;12.40;7.77;;;4.20;74.40;;;;;;4870273;28;91992;-76
2021/01/09 08:29:25;;;;;;;11.27;7.63;;;4.20;74.70;;;;;;4870964;28;90996;-75
2021/01/09 08:31:52;;;;;;;13.23;7.50;;;4.30;74.50;;;;;;4885958;28;86926;-76
2021/01/09 08:34:19;;;;;;;15.70;7.50;;;4.30;74.00;;;;;;4903820;28;87075;-75
2021/01/09 08:36:46;;;;;;;14.30;8.60;;;4.30;73.20;;;;;;4902337;28;89249;-75
2021/01/09 08:39:12;;;;;;;16.87;9.90;;;4.30;73.00;;;;;;4885959;28;91797;-75
2021/01/09 08:41:42;;;;;;;16.80;9.67;;;4.30;73.00;;;;;;4902572;28;86873;-76
2021/01/09 08:44:09;;;;;;;18.77;10.60;;;4.30;72.90;;;;;;4902165;28;87530;-75
2021/01/09 08:46:39;;;;;;;21.83;11.57;;;4.40;73.20;;;;;;4884854;28;88280;-75
2021/01/09 08:49:07;;;;;;;19.33;10.27;;;4.40;73.10;;;;;;4869453;28;90935;-75
2021/01/09 08:51:34;;;;;;;19.77;9.30;;;4.40;73.30;;;;;;4884804;28;86760;-75
2021/01/09 08:54:06;;;;;;;20.20;10.73;;;4.40;72.10;;;;;;4902301;28;86640;-75
2021/01/09 08:56:34;;;;;;;21.07;11.00;;;4.40;72.50;;;;;;4868816;28;91498;-76
2021/01/09 08:59:05;;;;;;;15.83;8.30;;;4.40;72.30;;;;;;4888622;28;91811;-76
2021/01/09 09:01:47;;;;;;;17.92;9.35;;;4.40;71.80;;;;;;4905948;28;87941;-75
2021/01/09 09:04:16;;;;;;;;;;;4.30;71.90;;;;;;4889969;28;87513;-76
2021/01/09 09:06:43;;;;;;;16.17;10.10;;;4.40;71.60;;;;;;4890259;28;91161;-75
2021/01/09 09:09:14;;;;;;;29.17;14.53;;;4.40;71.90;;;;;;4888633;28;87975;-75
2021/01/09 09:11:41;;;;;;;23.00;11.82;;;4.40;72.00;;;;;;4888431;28;87028;-76
2021/01/09 09:14:08;;;;;;;28.50;13.37;;;4.50;71.70;;;;;;4873532;28;87092;-76
2021/01/09 09:16:35;;;;;;;24.57;11.63;;;4.50;71.80;;;;;;4905965;28;90997;-76
2021/01/09 09:19:13;;;;;;;24.27;12.10;;;4.60;71.30;;;;;;4907211;28;91861;-76
2021/01/09 09:21:48;;;;;;;20.30;11.20;;;4.60;71.40;;;;;;4905445;28;86972;-76
2021/01/09 09:24:16;;;;;;;17.37;10.30;;;4.60;71.50;;;;;;4889043;28;87421;-76
2021/01/09 09:26:42;;;;;;;21.40;10.93;;;4.70;71.00;;;;;;4903608;28;91919;-76
2021/01/09 09:29:09;;;;;;;17.17;10.40;;;4.80;71.00;;;;;;4905826;28;88923;-76
2021/01/09 09:31:40;;;;;;;19.90;10.60;;;4.80;70.50;;;;;;4887958;28;86981;-76
2021/01/09 09:34:14;;;;;;;17.70;10.30;;;4.80;70.10;;;;;;4873244;28;87994;-76
2021/01/09 09:36:48;;;;;;;13.20;8.97;;;4.80;70.30;;;;;;4905544;28;88758;-76
2021/01/09 09:39:19;;;;;;;14.03;9.17;;;4.80;70.00;;;;;;4889307;28;90641;-76
2021/01/09 09:41:53;;;;;;;11.67;9.23;;;4.90;70.10;;;;;;4904847;28;87299;-76
2021/01/09 09:44:20;;;;;;;13.00;9.30;;;4.90;69.40;;;;;;4905680;28;88343;-76
2021/01/09 09:46:48;;;;;;;14.97;9.87;;;4.90;68.90;;;;;;4872627;28;90771;-76
2021/01/09 09:49:14;;;;;;;13.20;9.37;;;4.90;69.50;;;;;;4873584;28;90942;-76
2021/01/09 09:51:40;;;;;;;16.50;10.07;;;4.90;69.60;;;;;;4888412;28;88063;-76
2021/01/09 09:54:06;;;;;;;14.17;10.23;;;5.00;69.50;;;;;;4889079;28;87716;-75
2021/01/09 09:56:41;;;;;;;16.57;10.43;;;5.00;68.90;;;;;;4872876;28;90035;-76
2021/01/09 09:59:11;;;;;;;17.87;11.80;;;4.90;69.00;;;;;;4905301;28;87618;-76
2021/01/09 10:01:38;;;;;;;16.73;10.13;;;4.90;69.10;;;;;;4906182;28;86886;-75
2021/01/09 10:04:14;;;;;;;19.67;11.17;;;5.00;69.10;;;;;;4889721;28;86926;-76
2021/01/09 10:06:41;;;;;;;19.40;11.20;;;5.00;68.60;;;;;;4906592;28;87835;-75
2021/01/09 10:09:20;;;;;;;19.97;11.23;;;5.10;68.60;;;;;;4907440;28;87436;-76
2021/01/09 10:11:48;;;;;;;18.63;11.20;;;5.10;68.10;;;;;;4908843;28;87429;-77
2021/01/09 10:14:14;;;;;;;22.40;11.10;;;5.20;67.90;;;;;;4891631;28;86856;-77
2021/01/09 10:16:40;;;;;;;20.67;10.67;;;5.30;67.80;;;;;;4888645;28;89208;-75
2021/01/09 10:19:06;;;;;;;18.20;10.20;;;5.40;67.10;;;;;;4890694;28;91835;-77
2021/01/09 10:21:33;;;;;;;16.63;10.10;;;5.50;66.60;;;;;;4907075;28;87030;-77
2021/01/09 10:23:59;;;;;;;13.13;8.77;;;5.40;66.70;;;;;;4873931;28;87469;-76
2021/01/09 10:26:30;;;;;;;13.47;8.77;;;5.40;66.10;;;;;;4888396;28;91630;-76
2021/01/09 10:28:57;;;;;;;18.35;9.73;;;5.40;66.60;;;;;;4903486;28;87356;-76
2021/01/09 10:31:40;;;;;;;15.37;8.73;;;5.40;66.00;;;;;;4888472;28;87175;-76
2021/01/09 10:34:07;;;;;;;14.83;9.50;;;5.30;66.40;;;;;;4904566;28;86441;-76
2021/01/09 10:36:35;;;;;;;12.90;8.67;;;5.30;66.30;;;;;;4904951;28;88234;-76
2021/01/09 10:39:03;;;;;;;10.23;7.70;;;5.30;65.80;;;;;;4904643;28;88553;-76
2021/01/09 10:41:29;;;;;;;12.23;8.60;;;5.20;65.90;;;;;;4888132;28;88578;-76
2021/01/09 10:43:55;;;;;;;12.87;9.00;;;5.10;66.30;;;;;;4887335;28;87582;-76
2021/01/09 10:46:26;;;;;;;19.40;11.10;;;5.10;66.60;;;;;;4887688;28;91521;-76
2021/01/09 10:48:52;;;;;;;28.13;13.70;;;5.10;66.40;;;;;;4870701;28;89768;-76
2021/01/09 10:51:22;;;;;;;21.27;10.97;;;5.10;66.10;;;;;;4904608;28;86944;-76
2021/01/09 10:53:49;;;;;;;17.27;10.23;;;5.00;65.80;;;;;;4887145;28;86854;-76
2021/01/09 10:56:15;;;;;;;15.30;9.00;;;4.90;65.70;;;;;;4887076;28;87635;-76
2021/01/09 10:58:42;;;;;;;17.03;9.80;;;5.00;65.50;;;;;;4903373;28;87894;-75
2021/01/09 11:01:09;;;;;;;19.17;10.90;;;5.10;65.70;;;;;;4887687;28;86990;-76
2021/01/09 11:03:35;;;;;;;17.10;10.00;;;5.20;66.00;;;;;;4887143;28;87655;-75
2021/01/09 11:06:02;;;;;;;20.10;10.90;;;5.30;66.00;;;;;;4869808;28;92997;-75
2021/01/09 11:08:28;;;;;;;21.33;11.30;;;5.40;65.80;;;;;;4887183;28;88991;-76
2021/01/09 11:10:55;;;;;;;18.90;9.03;;;5.40;64.40;;;;;;4902777;28;87503;-75
2021/01/09 11:13:21;;;;;;;13.83;8.70;;;5.40;63.20;;;;;;4904737;28;87343;-76
2021/01/09 11:15:48;;;;;;;17.00;10.10;;;5.40;64.00;;;;;;4904020;28;88579;-76
2021/01/09 11:18:14;;;;;;;15.13;8.77;;;5.50;63.90;;;;;;4870720;28;91054;-77
2021/01/09 11:20:45;;;;;;;15.60;8.97;;;5.40;63.50;;;;;;4870377;28;87093;-75
2021/01/09 11:23:11;;;;;;;10.93;7.30;;;5.40;62.40;;;;;;4903489;28;87983;-76
2021/01/09 11:25:41;;;;;;;10.07;7.23;;;5.30;61.30;;;;;;4871216;28;91127;-76
2021/01/09 11:28:07;;;;;;;12.23;7.53;;;5.30;62.00;;;;;;4887173;28;91059;-76
2021/01/09 11:30:33;;;;;;;18.37;8.53;;;5.30;62.50;;;;;;4887265;28;88290;-76
2021/01/09 11:32:59;;;;;;;14.23;8.37;;;5.30;62.70;;;;;;4902718;28;87551;-76
2021/01/09 11:35:25;;;;;;;12.53;8.07;;;5.30;63.40;;;;;;4903075;28;91804;-76
2021/01/09 11:37:51;;;;;;;12.77;6.83;;;5.30;62.40;;;;;;4870340;28;89446;-76
2021/01/09 11:40:16;;;;;;;8.53;5.93;;;5.30;61.00;;;;;;4887526;28;87235;-76
2021/01/09 11:42:42;;;;;;;9.73;7.23;;;5.20;60.40;;;;;;4886800;28;87333;-75
2021/01/09 11:45:09;;;;;;;10.50;6.90;;;5.20;61.30;;;;;;4904182;28;88152;-75
2021/01/09 11:47:35;;;;;;;12.00;7.07;;;5.30;61.30;;;;;;4904881;28;87488;-76
2021/01/09 11:50:01;;;;;;;13.03;7.17;;;5.40;61.30;;;;;;4902581;28;87135;-75
2021/01/09 11:52:26;;;;;;;11.30;6.97;;;5.40;61.40;;;;;;4904344;28;87087;-76
2021/01/09 11:54:52;;;;;;;10.43;6.87;;;5.40;61.10;;;;;;4902842;28;89224;-76
2021/01/09 11:57:18;;;;;;;8.17;6.63;;;5.40;61.50;;;;;;4902910;28;92462;-77
2021/01/09 11:59:44;;;;;;;11.73;6.37;;;5.40;60.60;;;;;;4901935;28;86901;-76
2021/01/09 12:02:10;;;;;;;11.07;7.00;;;5.30;60.80;;;;;;4887216;28;87077;-76
2021/01/09 12:04:35;;;;;;;9.23;6.57;;;5.20;60.90;;;;;;4887430;28;88133;-76
2021/01/09 12:07:01;;;;;;;7.60;6.20;;;5.20;60.80;;;;;;4886837;28;87410;-76
2021/01/09 12:09:27;;;;;;;11.83;7.23;;;5.10;61.00;;;;;;4886519;28;87052;-76
2021/01/09 12:11:56;;;;;;;8.17;6.50;;;5.10;60.70;;;;;;4903952;28;86139;-75
2021/01/09 12:14:22;;;;;;;8.70;6.73;;;5.00;61.00;;;;;;4887007;28;88029;-76
2021/01/09 12:16:48;;;;;;;11.13;7.40;;;5.00;60.80;;;;;;4886238;28;87371;-75
2021/01/09 12:19:14;;;;;;;14.37;7.93;;;5.00;61.50;;;;;;4886911;28;88012;-76
2021/01/09 12:21:40;;;;;;;9.73;7.27;;;5.00;62.00;;;;;;4887216;28;87223;-76
2021/01/09 12:24:06;;;;;;;13.90;8.23;;;5.10;61.90;;;;;;4901851;28;90988;-76
2021/01/09 12:26:32;;;;;;;10.87;6.73;;;5.20;61.90;;;;;;4871356;28;91199;-76
2021/01/09 12:28:58;;;;;;;12.13;7.50;;;5.20;61.40;;;;;;4904394;28;87580;-76
2021/01/09 12:31:31;;;;;;;9.13;7.00;;;5.20;61.00;;;;;;4889735;28;88330;-77
2021/01/09 12:33:57;;;;;;;10.77;7.37;;;5.10;61.20;;;;;;4906380;28;86775;-75
2021/01/09 12:36:23;;;;;;;8.53;6.90;;;5.10;61.80;;;;;;4874093;28;91144;-76
2021/01/09 12:38:49;;;;;;;12.30;8.23;;;5.10;62.50;;;;;;4889319;28;86954;-75
2021/01/09 12:41:15;;;;;;;12.17;8.77;;;5.10;62.30;;;;;;4907189;28;86862;-76
2021/01/09 12:43:41;;;;;;;12.23;8.60;;;5.10;62.70;;;;;;4904961;28;92471;-76
2021/01/09 12:46:06;;;;;;;14.00;9.07;;;5.10;62.60;;;;;;4889190;28;88808;-75